Time;durP1;ratioP1;P1;durP2;ratioP2;P2;SDS_P1;SDS_P2;PMS_P1;PMS_P2;Temp;Humidity;BMP_temperature;BMP_pressure;BME280_temperature;BME280_humidity;BME280_pressure;Samples;Min_cycle;Max_cycle;Signal;HPM_P1;HPM_P2
2021/01/06 00:03:12;;;;;;;4.78;1.88;;;;;;;;;;10325218;28;20044;-62
2021/01/06 00:08:10;;;;;;;5.13;1.75;;;;;;;;;;10327888;28;20041;-62
2021/01/06 00:13:07;;;;;;;3.57;2.00;;;;;;;;;;10339212;28;20037;-61
2021/01/06 00:18:04;;;;;;;2.70;1.50;;;;;;;;;;10331058;28;20495;-61
2021/01/06 00:23:02;;;;;;;4.90;2.03;;;;;;;;;;10325236;28;20056;-62
2021/01/06 00:28:00;;;;;;;3.10;2.13;;;;;;;;;;10312479;28;20037;-61
2021/01/06 00:32:58;;;;;;;2.80;2.05;;;;;;;;;;10323202;28;20033;-62
2021/01/06 00:37:58;;;;;;;4.93;2.35;;;;;;;;;;10324921;28;20037;-63
2021/01/06 00:42:59;;;;;;;4.07;2.35;;;;;;;;;;10315034;28;20037;-62
2021/01/06 00:47:57;;;;;;;3.30;1.88;;;;;;;;;;10327448;28;20434;-58
2021/01/06 00:53:02;;;;;;;4.00;2.03;;;;;;;;;;10327988;28;20051;-62
2021/01/06 00:58:01;;;;;;;2.28;1.95;;;;;;;;;;10326406;28;20112;-59
2021/01/06 01:02:59;;;;;;;3.00;2.07;;;;;;;;;;10319800;28;20116;-62
2021/01/06 01:07:57;;;;;;;6.05;2.28;;;;;;;;;;10328072;28;20033;-62
2021/01/06 01:12:54;;;;;;;2.53;1.98;;;;;;;;;;10321506;28;20411;-60
2021/01/06 01:17:52;;;;;;;4.43;2.23;;;;;;;;;;10320976;28;20041;-62
2021/01/06 01:22:50;;;;;;;4.20;1.50;;;;;;;;;;10316620;28;20573;-62
2021/01/06 01:27:47;;;;;;;1.97;1.33;;;;;;;;;;10323337;28;20617;-62
2021/01/06 01:32:45;;;;;;;4.57;1.40;;;;;;;;;;10322924;28;20033;-62
2021/01/06 01:37:46;;;;;;;4.40;1.92;;;;;;;;;;10321906;28;20120;-61
2021/01/06 01:42:43;;;;;;;2.35;1.58;;;;;;;;;;10329639;28;20036;-62
2021/01/06 01:48:01;;;;;;;3.03;1.20;;;;;;;;;;10337990;28;21057;-61
2021/01/06 01:53:05;;;;;;;1.85;1.33;;;;;;;;;;10317371;28;20074;-62
2021/01/06 01:58:09;;;;;;;1.83;1.15;;;;;;;;;;10322675;28;21305;-62
2021/01/06 02:03:24;;;;;;;2.53;1.52;;;;;;;;;;10321474;28;20179;-61
2021/01/06 02:08:26;;;;;;;2.42;0.95;;;;;;;;;;10335314;28;20120;-63
2021/01/06 02:13:30;;;;;;;2.92;1.58;;;;;;;;;;10329708;28;20045;-63
2021/01/06 02:18:27;;;;;;;2.88;1.67;;;;;;;;;;10303361;28;20090;-63
2021/01/06 02:23:25;;;;;;;2.83;1.67;;;;;;;;;;10330238;28;20090;-59
2021/01/06 02:28:22;;;;;;;2.77;1.43;;;;;;;;;;10328163;28;20438;-60
2021/01/06 02:33:20;;;;;;;2.95;1.63;;;;;;;;;;10316668;28;20179;-63
2021/01/06 02:38:18;;;;;;;1.27;1.07;;;;;;;;;;10318277;28;20246;-62
2021/01/06 02:43:16;;;;;;;6.93;2.28;;;;;;;;;;10314457;28;20079;-61
2021/01/06 02:48:13;;;;;;;3.67;1.17;;;;;;;;;;10327783;28;20083;-63
2021/01/06 02:53:14;;;;;;;1.30;1.17;;;;;;;;;;10341723;28;20033;-62
2021/01/06 02:58:13;;;;;;;4.82;1.17;;;;;;;;;;10335248;28;20037;-62
2021/01/06 03:03:12;;;;;;;2.40;1.40;;;;;;;;;;10339290;28;20024;-63
2021/01/06 03:08:10;;;;;;;3.95;1.52;;;;;;;;;;10341750;28;20438;-63
2021/01/06 03:13:08;;;;;;;;;;;;;;;;;;10333676;28;20041;-63
2021/01/06 03:18:05;;;;;;;1.65;1.23;;;;;;;;;;10315277;28;19963;-62
2021/01/06 03:23:08;;;;;;;1.33;1.20;;;;;;;;;;10336884;28;20044;-63
2021/01/06 03:28:06;;;;;;;2.83;1.40;;;;;;;;;;10327888;28;20450;-62
2021/01/06 03:33:23;;;;;;;1.53;1.03;;;;;;;;;;10332323;28;20029;-63
2021/01/06 03:38:20;;;;;;;1.17;0.85;;;;;;;;;;10330136;28;20755;-62
2021/01/06 03:43:18;;;;;;;1.23;1.13;;;;;;;;;;10329321;28;20099;-62
2021/01/06 03:48:21;;;;;;;1.70;1.10;;;;;;;;;;10330705;28;20603;-62
2021/01/06 03:53:34;;;;;;;3.00;1.25;;;;;;;;;;10338059;28;20452;-61
2021/01/06 03:58:41;;;;;;;1.42;1.30;;;;;;;;;;10334085;28;20044;-61
2021/01/06 04:03:41;;;;;;;2.28;1.25;;;;;;;;;;10331938;28;20037;-60
2021/01/06 04:08:49;;;;;;;2.55;0.70;;;;;;;;;;10332486;28;20132;-61
2021/01/06 04:13:47;;;;;;;3.50;1.45;;;;;;;;;;10319594;28;20296;-61
2021/01/06 04:18:44;;;;;;;0.70;0.70;;;;;;;;;;10330462;28;20033;-62
2021/01/06 04:23:42;;;;;;;1.47;1.07;;;;;;;;;;10334442;28;20446;-61
2021/01/06 04:28:40;;;;;;;1.53;1.10;;;;;;;;;;10316915;28;20092;-62
2021/01/06 04:33:42;;;;;;;4.68;1.33;;;;;;;;;;10326802;28;20033;-63
2021/01/06 04:38:44;;;;;;;2.13;1.17;;;;;;;;;;10330583;28;20041;-62
2021/01/06 04:43:49;;;;;;;1.55;0.90;;;;;;;;;;10324069;28;20454;-62
2021/01/06 04:49:22;;;;;;;2.10;1.00;;;;;;;;;;10333595;28;20037;-63
2021/01/06 04:54:35;;;;;;;1.70;1.30;;;;;;;;;;10260312;28;20137;-62
2021/01/06 04:59:38;;;;;;;3.45;1.13;;;;;;;;;;10323476;28;20084;-63
2021/01/06 05:04:54;;;;;;;3.30;1.30;;;;;;;;;;10312093;28;20029;-63
2021/01/06 05:10:15;;;;;;;1.83;1.05;;;;;;;;;;10317799;28;20043;-63
2021/01/06 05:15:35;;;;;;;0.98;0.93;;;;;;;;;;10301920;28;20045;-63
2021/01/06 05:20:33;;;;;;;2.08;0.88;;;;;;;;;;10315349;28;20590;-63
2021/01/06 05:25:31;;;;;;;1.83;1.10;;;;;;;;;;10318348;28;20100;-63
2021/01/06 05:30:30;;;;;;;0.87;0.87;;;;;;;;;;10320780;28;20440;-63
2021/01/06 05:35:29;;;;;;;1.92;1.20;;;;;;;;;;10323018;28;20380;-63
2021/01/06 05:40:29;;;;;;;1.35;1.23;;;;;;;;;;10315007;28;20041;-63
2021/01/06 05:45:37;;;;;;;1.73;1.27;;;;;;;;;;10299427;28;21279;-63
2021/01/06 05:50:36;;;;;;;2.72;1.17;;;;;;;;;;10320052;28;20106;-63
2021/01/06 05:55:35;;;;;;;3.05;1.45;;;;;;;;;;10316824;28;20108;-63
2021/01/06 06:00:59;;;;;;;3.90;1.80;;;;;;;;;;10310151;28;20304;-64
2021/01/06 06:06:15;;;;;;;4.03;1.45;;;;;;;;;;10280632;28;20037;-61
2021/01/06 06:11:37;;;;;;;3.90;1.73;;;;;;;;;;10315311;28;20041;-61
2021/01/06 06:16:53;;;;;;;2.92;1.55;;;;;;;;;;10306240;28;20135;-61
2021/01/06 06:21:59;;;;;;;1.73;1.20;;;;;;;;;;10328248;28;20105;-61
2021/01/06 06:27:15;;;;;;;2.08;1.42;;;;;;;;;;10333809;28;20033;-62
2021/01/06 06:32:12;;;;;;;2.05;1.60;;;;;;;;;;10326092;28;20033;-62
2021/01/06 06:37:12;;;;;;;3.13;1.10;;;;;;;;;;10332995;28;20029;-61
2021/01/06 06:42:26;;;;;;;5.30;1.48;;;;;;;;;;10326989;28;20080;-61
2021/01/06 06:47:28;;;;;;;0.80;0.80;;;;;;;;;;10327259;28;20041;-61
2021/01/06 06:52:32;;;;;;;2.70;1.42;;;;;;;;;;10320778;28;20041;-61
2021/01/06 06:57:42;;;;;;;0.80;0.80;;;;;;;;;;10339449;28;20045;-63
2021/01/06 07:02:44;;;;;;;0.82;0.82;;;;;;;;;;10342904;28;20041;-64
2021/01/06 07:07:45;;;;;;;2.10;0.90;;;;;;;;;;10332644;28;21110;-62
2021/01/06 07:12:42;;;;;;;5.85;1.05;;;;;;;;;;10314542;28;20499;-63
2021/01/06 07:17:40;;;;;;;1.20;1.10;;;;;;;;;;10334361;28;20110;-62
2021/01/06 07:22:42;;;;;;;3.60;2.08;;;;;;;;;;10327369;28;20052;-62
2021/01/06 07:27:40;;;;;;;2.78;1.60;;;;;;;;;;10315078;28;20395;-62
2021/01/06 07:32:42;;;;;;;2.40;1.93;;;;;;;;;;10326560;28;20048;-63
2021/01/06 07:37:42;;;;;;;2.15;1.52;;;;;;;;;;10327240;28;20515;-62
2021/01/06 07:42:41;;;;;;;2.88;1.90;;;;;;;;;;10308755;28;20538;-61
2021/01/06 07:47:42;;;;;;;3.55;1.73;;;;;;;;;;10324851;28;20128;-61
2021/01/06 07:53:00;;;;;;;3.28;2.13;;;;;;;;;;10324823;28;20102;-62
2021/01/06 07:58:00;;;;;;;4.70;2.80;;;;;;;;;;10315900;28;20041;-61
2021/01/06 08:03:25;;;;;;;3.65;2.13;;;;;;;;;;10292735;28;20047;-62
2021/01/06 08:08:23;;;;;;;4.65;1.83;;;;;;;;;;10303713;28;20503;-61
2021/01/06 08:13:26;;;;;;;6.38;2.28;;;;;;;;;;10319738;28;20107;-62
2021/01/06 08:18:40;;;;;;;4.35;2.13;;;;;;;;;;10312416;28;20930;-62
2021/01/06 08:23:51;;;;;;;3.00;1.75;;;;;;;;;;10307075;28;20087;-62
2021/01/06 08:28:48;;;;;;;3.67;1.85;;;;;;;;;;10303389;28;20048;-63
2021/01/06 08:33:50;;;;;;;5.93;2.13;;;;;;;;;;10316741;28;20407;-63
2021/01/06 08:38:48;;;;;;;7.18;2.70;;;;;;;;;;10301366;28;20041;-63
2021/01/06 08:43:46;;;;;;;5.07;2.80;;;;;;;;;;10312963;28;20037;-63
2021/01/06 08:48:43;;;;;;;;;;;;;;;;;;10305684;28;20575;-63
2021/01/06 08:53:42;;;;;;;4.35;2.33;;;;;;;;;;10329544;28;19912;-63
2021/01/06 08:58:39;;;;;;;;;;;;;;;;;;10318904;28;20557;-63
2021/01/06 09:03:36;;;;;;;1.20;1.10;;;;;;;;;;10324006;28;19912;-63
2021/01/06 09:08:37;;;;;;;6.50;1.97;;;;;;;;;;10309628;28;20135;-63
2021/01/06 09:13:39;;;;;;;4.95;1.75;;;;;;;;;;10334273;28;20526;-64
2021/01/06 09:18:42;;;;;;;6.72;2.60;;;;;;;;;;10314506;28;20034;-63
2021/01/06 09:23:43;;;;;;;4.47;1.80;;;;;;;;;;10305664;28;20454;-63
2021/01/06 09:28:42;;;;;;;3.63;2.50;;;;;;;;;;10305917;28;20033;-63
2021/01/06 09:33:41;;;;;;;4.93;2.58;;;;;;;;;;10315629;28;20033;-63
2021/01/06 09:38:49;;;;;;;4.60;2.92;;;;;;;;;;10318387;28;20079;-63
2021/01/06 09:43:58;;;;;;;4.82;3.03;;;;;;;;;;10288727;28;20029;-63
2021/01/06 09:49:02;;;;;;;4.80;2.92;;;;;;;;;;10312968;28;20067;-64
2021/01/06 09:54:02;;;;;;;4.35;2.50;;;;;;;;;;10294989;28;20041;-64
2021/01/06 09:59:00;;;;;;;4.47;2.40;;;;;;;;;;10309139;28;20037;-63
2021/01/06 10:04:03;;;;;;;3.90;2.17;;;;;;;;;;10308597;28;20510;-63
2021/01/06 10:09:03;;;;;;;6.57;2.50;;;;;;;;;;10313038;28;20044;-63
2021/01/06 10:14:27;;;;;;;6.47;2.40;;;;;;;;;;10334300;28;20075;-63
2021/01/06 10:19:46;;;;;;;3.30;2.20;;;;;;;;;;10307579;28;20559;-62
2021/01/06 10:24:46;;;;;;;4.78;2.08;;;;;;;;;;10304467;28;20033;-63
2021/01/06 10:29:48;;;;;;;3.30;2.20;;;;;;;;;;10307740;28;20625;-63
2021/01/06 10:34:50;;;;;;;2.47;1.90;;;;;;;;;;10314328;28;20131;-63
2021/01/06 10:39:50;;;;;;;3.95;1.70;;;;;;;;;;10315134;28;20051;-63
2021/01/06 10:44:47;;;;;;;7.30;2.35;;;;;;;;;;10317140;28;20044;-62
2021/01/06 10:49:45;;;;;;;6.47;2.53;;;;;;;;;;10323885;28;20387;-62
2021/01/06 10:54:52;;;;;;;3.73;2.40;;;;;;;;;;10319706;28;20052;-64
2021/01/06 11:00:08;;;;;;;3.40;1.88;;;;;;;;;;10320979;28;20360;-62
2021/01/06 11:05:06;;;;;;;5.18;2.08;;;;;;;;;;10287561;28;20798;-63
2021/01/06 11:10:03;;;;;;;6.40;1.60;;;;;;;;;;10315988;28;20029;-63
2021/01/06 11:15:04;;;;;;;2.93;1.80;;;;;;;;;;10331711;28;20056;-63
2021/01/06 11:20:04;;;;;;;3.00;2.10;;;;;;;;;;10325388;28;20041;-63
2021/01/06 11:25:13;;;;;;;4.30;2.05;;;;;;;;;;10324432;28;20492;-63
2021/01/06 11:30:11;;;;;;;4.68;1.70;;;;;;;;;;10335018;28;20048;-63
2021/01/06 11:35:29;;;;;;;3.30;2.00;;;;;;;;;;10318167;28;20475;-62
2021/01/06 11:40:26;;;;;;;2.97;1.42;;;;;;;;;;10327044;28;20594;-64
2021/01/06 11:45:26;;;;;;;5.33;2.00;;;;;;;;;;10329607;28;20139;-63
2021/01/06 11:50:36;;;;;;;4.03;1.80;;;;;;;;;;10325191;28;20021;-64
2021/01/06 11:55:35;;;;;;;1.65;1.55;;;;;;;;;;10324933;28;20499;-63
2021/01/06 12:00:42;;;;;;;4.35;2.13;;;;;;;;;;10329040;28;20114;-63
2021/01/06 12:05:58;;;;;;;3.28;2.33;;;;;;;;;;10318698;28;20063;-63
2021/01/06 12:11:18;;;;;;;2.53;1.88;;;;;;;;;;10327323;28;20040;-63
2021/01/06 12:16:16;;;;;;;3.72;1.85;;;;;;;;;;10330266;28;21113;-63
2021/01/06 12:21:40;;;;;;;3.87;2.43;;;;;;;;;;10321411;28;20124;-63
2021/01/06 12:26:39;;;;;;;2.15;1.80;;;;;;;;;;10296412;28;20033;-62
2021/01/06 12:32:00;;;;;;;2.63;1.40;;;;;;;;;;10313756;28;20037;-66
2021/01/06 12:37:19;;;;;;;2.35;1.60;;;;;;;;;;10314231;28;20666;-63
2021/01/06 12:42:46;;;;;;;2.63;1.60;;;;;;;;;;10316998;28;20068;-63
2021/01/06 12:47:49;;;;;;;2.35;1.80;;;;;;;;;;10311652;28;20055;-63
2021/01/06 12:52:48;;;;;;;4.75;1.85;;;;;;;;;;10327069;28;20507;-63
2021/01/06 12:57:52;;;;;;;3.50;2.08;;;;;;;;;;10329024;28;20120;-64
2021/01/06 13:02:49;;;;;;;5.22;1.77;;;;;;;;;;10325467;28;20162;-63
2021/01/06 13:07:48;;;;;;;4.33;1.67;;;;;;;;;;10314616;28;20186;-63
2021/01/06 13:12:45;;;;;;;2.53;1.42;;;;;;;;;;10317792;28;20033;-63
2021/01/06 13:17:44;;;;;;;2.67;1.40;;;;;;;;;;10314653;28;20029;-63
2021/01/06 13:22:42;;;;;;;3.78;1.80;;;;;;;;;;10312209;28;20511;-63
2021/01/06 13:27:51;;;;;;;1.70;1.43;;;;;;;;;;10313430;28;20049;-63
2021/01/06 13:32:52;;;;;;;2.40;1.27;;;;;;;;;;10306636;28;20044;-62
2021/01/06 13:38:01;;;;;;;3.20;1.67;;;;;;;;;;10305062;28;20095;-63
2021/01/06 13:43:01;;;;;;;1.65;1.00;;;;;;;;;;10309571;28;20127;-63
2021/01/06 13:48:10;;;;;;;2.65;1.48;;;;;;;;;;10333331;28;20041;-63
2021/01/06 13:53:14;;;;;;;3.75;1.40;;;;;;;;;;10326856;28;21489;-63
2021/01/06 13:58:25;;;;;;;1.05;1.02;;;;;;;;;;10322512;28;20047;-63
2021/01/06 14:03:25;;;;;;;1.98;1.27;;;;;;;;;;10309614;28;20545;-63
2021/01/06 14:08:23;;;;;;;3.58;1.73;;;;;;;;;;10328053;28;20045;-63
2021/01/06 14:13:27;;;;;;;2.07;1.13;;;;;;;;;;10325439;28;20391;-64
2021/01/06 14:18:34;;;;;;;1.83;1.35;;;;;;;;;;10302246;28;20095;-63
2021/01/06 14:23:37;;;;;;;1.25;1.05;;;;;;;;;;10306810;28;20435;-64
2021/01/06 14:28:50;;;;;;;3.22;0.90;;;;;;;;;;10307423;28;20537;-63
2021/01/06 14:33:57;;;;;;;1.00;0.95;;;;;;;;;;10315630;28;20041;-63
2021/01/06 14:39:07;;;;;;;1.10;1.00;;;;;;;;;;10315042;28;20704;-62
2021/01/06 14:44:21;;;;;;;3.42;1.45;;;;;;;;;;10320871;28;20459;-63
2021/01/06 14:49:29;;;;;;;2.63;1.60;;;;;;;;;;10296061;28;20033;-63
2021/01/06 14:54:35;;;;;;;1.80;1.47;;;;;;;;;;10319924;28;20596;-63
2021/01/06 14:59:39;;;;;;;2.55;1.10;;;;;;;;;;10324270;28;20400;-63
2021/01/06 15:04:38;;;;;;;4.22;1.05;;;;;;;;;;10323277;28;20053;-63
2021/01/06 15:09:44;;;;;;;1.23;1.08;;;;;;;;;;10328398;28;20029;-62
2021/01/06 15:14:53;;;;;;;2.13;1.20;;;;;;;;;;10328482;28;20423;-63
2021/01/06 15:20:20;;;;;;;1.38;1.20;;;;;;;;;;10330425;28;20051;-62
2021/01/06 15:25:17;;;;;;;3.13;1.40;;;;;;;;;;10319734;28;20069;-63
2021/01/06 15:30:19;;;;;;;1.30;1.13;;;;;;;;;;10333194;28;20029;-63
2021/01/06 15:35:25;;;;;;;3.08;1.25;;;;;;;;;;10332111;28;20064;-63
2021/01/06 15:40:29;;;;;;;4.13;1.38;;;;;;;;;;10326379;28;20033;-62
2021/01/06 15:45:26;;;;;;;3.88;1.25;;;;;;;;;;10315772;28;20029;-62
2021/01/06 15:50:25;;;;;;;4.93;0.93;;;;;;;;;;10307903;28;20047;-61
2021/01/06 15:55:27;;;;;;;2.78;1.52;;;;;;;;;;10334145;28;20045;-64
2021/01/06 16:00:26;;;;;;;2.80;1.35;;;;;;;;;;10327971;28;20088;-63
2021/01/06 16:05:37;;;;;;;1.83;1.40;;;;;;;;;;10318348;28;20079;-61
2021/01/06 16:10:36;;;;;;;2.30;1.38;;;;;;;;;;10323462;28;20052;-60
2021/01/06 16:15:35;;;;;;;1.40;1.00;;;;;;;;;;10329241;28;20065;-61
2021/01/06 16:20:34;;;;;;;3.45;1.83;;;;;;;;;;10312709;28;20037;-61
2021/01/06 16:25:45;;;;;;;1.30;1.20;;;;;;;;;;10327375;28;20434;-64
2021/01/06 16:30:50;;;;;;;2.00;1.45;;;;;;;;;;10312852;28;20083;-64
2021/01/06 16:36:04;;;;;;;3.25;1.83;;;;;;;;;;10322903;28;20087;-64
2021/01/06 16:41:22;;;;;;;2.92;1.48;;;;;;;;;;10300305;28;20044;-64
2021/01/06 16:46:24;;;;;;;2.85;1.40;;;;;;;;;;10306968;28;20446;-63
2021/01/06 16:51:22;;;;;;;2.83;1.13;;;;;;;;;;10335109;28;20033;-63
2021/01/06 16:56:19;;;;;;;;;;;;;;;;;;10332463;28;20029;-63
2021/01/06 17:01:17;;;;;;;2.63;2.05;;;;;;;;;;10332109;28;20387;-64
2021/01/06 17:06:18;;;;;;;1.40;1.08;;;;;;;;;;10335608;28;20491;-63
2021/01/06 17:11:16;;;;;;;0.98;0.90;;;;;;;;;;10309725;28;20028;-63
2021/01/06 17:16:13;;;;;;;2.42;1.55;;;;;;;;;;10312686;28;20025;-62
2021/01/06 17:21:16;;;;;;;1.83;1.23;;;;;;;;;;10327731;28;20017;-63
2021/01/06 17:26:15;;;;;;;0.90;0.90;;;;;;;;;;10338199;28;20021;-65
2021/01/06 17:31:18;;;;;;;1.85;1.33;;;;;;;;;;10320860;28;20204;-64
2021/01/06 17:36:17;;;;;;;1.38;1.27;;;;;;;;;;10312979;28;20024;-64
2021/01/06 17:41:15;;;;;;;0.82;0.82;;;;;;;;;;10329302;28;20061;-66
2021/01/06 17:46:15;;;;;;;1.23;0.90;;;;;;;;;;10332877;28;20020;-64
2021/01/06 17:51:15;;;;;;;1.70;1.38;;;;;;;;;;10316307;28;20070;-65
2021/01/06 17:56:12;;;;;;;0.73;0.73;;;;;;;;;;10326937;28;20466;-61
2021/01/06 18:01:13;;;;;;;2.67;1.33;;;;;;;;;;10301309;28;20059;-64
2021/01/06 18:06:20;;;;;;;2.92;1.20;;;;;;;;;;10314578;28;20104;-62
2021/01/06 18:11:28;;;;;;;1.58;1.40;;;;;;;;;;10318922;28;20032;-61
2021/01/06 18:16:25;;;;;;;9.43;1.17;;;;;;;;;;10305032;28;20414;-62
2021/01/06 18:21:49;;;;;;;3.33;1.10;;;;;;;;;;10324049;28;20023;-62
2021/01/06 18:27:06;;;;;;;1.40;1.10;;;;;;;;;;10322108;28;20071;-61
2021/01/06 18:32:14;;;;;;;1.67;0.98;;;;;;;;;;10325914;28;20458;-61
2021/01/06 18:37:12;;;;;;;1.30;1.20;;;;;;;;;;10329226;28;20025;-62
2021/01/06 18:42:20;;;;;;;1.63;1.42;;;;;;;;;;10320369;28;20115;-60
2021/01/06 18:47:18;;;;;;;2.60;1.73;;;;;;;;;;10319521;28;20037;-61
2021/01/06 18:52:16;;;;;;;3.63;1.40;;;;;;;;;;10326706;28;20039;-62
2021/01/06 18:57:21;;;;;;;1.63;1.50;;;;;;;;;;10342397;28;20076;-60
2021/01/06 19:02:26;;;;;;;2.25;1.55;;;;;;;;;;10340266;28;20037;-61
2021/01/06 19:07:23;;;;;;;4.80;1.70;;;;;;;;;;10323490;28;20119;-64
2021/01/06 19:12:21;;;;;;;2.33;1.40;;;;;;;;;;10325670;28;20119;-64
2021/01/06 19:17:19;;;;;;;3.13;1.80;;;;;;;;;;10329918;28;20037;-64
2021/01/06 19:22:17;;;;;;;1.63;1.50;;;;;;;;;;10320753;28;20064;-64
2021/01/06 19:27:14;;;;;;;2.23;1.67;;;;;;;;;;10319052;28;20076;-64
2021/01/06 19:32:12;;;;;;;2.50;1.60;;;;;;;;;;10315840;28;20037;-61
2021/01/06 19:37:16;;;;;;;4.90;2.17;;;;;;;;;;10326815;28;20391;-62
2021/01/06 19:42:19;;;;;;;1.85;1.25;;;;;;;;;;10331010;28;20045;-60
2021/01/06 19:47:16;;;;;;;5.00;2.25;;;;;;;;;;10324342;28;20491;-62
2021/01/06 19:52:16;;;;;;;1.43;1.33;;;;;;;;;;10323783;28;20425;-61
2021/01/06 19:57:20;;;;;;;3.15;1.63;;;;;;;;;;10350279;28;20152;-62
2021/01/06 20:02:19;;;;;;;0.80;0.80;;;;;;;;;;10329644;28;20131;-61
2021/01/06 20:07:16;;;;;;;1.38;1.27;;;;;;;;;;10322275;28;20094;-60
2021/01/06 20:12:14;;;;;;;2.50;1.50;;;;;;;;;;10299258;28;20095;-61
2021/01/06 20:17:13;;;;;;;5.25;1.70;;;;;;;;;;10323460;28;20029;-62
2021/01/06 20:22:10;;;;;;;4.68;1.63;;;;;;;;;;10326461;28;20127;-60
2021/01/06 20:27:07;;;;;;;1.63;1.50;;;;;;;;;;10315211;28;20119;-62
2021/01/06 20:32:09;;;;;;;2.23;1.57;;;;;;;;;;10285868;28;20037;-64
2021/01/06 20:37:06;;;;;;;4.20;2.13;;;;;;;;;;10310692;28;20449;-63
2021/01/06 20:42:03;;;;;;;3.67;2.43;;;;;;;;;;10319066;28;20110;-63
2021/01/06 20:47:01;;;;;;;1.60;1.10;;;;;;;;;;10329894;28;20434;-65
2021/01/06 20:51:58;;;;;;;2.60;1.87;;;;;;;;;;10325618;28;20040;-64
2021/01/06 20:56:56;;;;;;;2.70;1.90;;;;;;;;;;10329441;28;20107;-63
2021/01/06 21:01:56;;;;;;;2.50;1.30;;;;;;;;;;10333024;28;20449;-65
2021/01/06 21:06:54;;;;;;;1.95;1.50;;;;;;;;;;10327273;28;20503;-65
2021/01/06 21:11:51;;;;;;;3.30;1.77;;;;;;;;;;10322613;28;20465;-63
2021/01/06 21:16:48;;;;;;;3.67;1.83;;;;;;;;;;10321637;28;20495;-63
2021/01/06 21:21:48;;;;;;;2.20;1.43;;;;;;;;;;10318157;28;20411;-64
2021/01/06 21:26:46;;;;;;;1.08;0.90;;;;;;;;;;10324348;28;20122;-63
2021/01/06 21:31:44;;;;;;;3.10;1.90;;;;;;;;;;10317667;28;20029;-63
2021/01/06 21:36:41;;;;;;;1.83;1.57;;;;;;;;;;10309661;28;20040;-63
2021/01/06 21:41:39;;;;;;;2.73;1.27;;;;;;;;;;10302817;28;20494;-63
2021/01/06 21:46:36;;;;;;;2.70;1.40;;;;;;;;;;10310242;28;20384;-64
2021/01/06 21:51:34;;;;;;;3.63;1.93;;;;;;;;;;10302552;28;20053;-63
2021/01/06 21:56:32;;;;;;;2.40;1.58;;;;;;;;;;10312747;28;20029;-64
2021/01/06 22:01:30;;;;;;;2.60;1.98;;;;;;;;;;10323633;28;20043;-64
2021/01/06 22:06:27;;;;;;;2.97;2.40;;;;;;;;;;10280756;28;20050;-64
2021/01/06 22:11:28;;;;;;;1.90;1.13;;;;;;;;;;10323584;28;20283;-64
2021/01/06 22:16:26;;;;;;;1.45;1.08;;;;;;;;;;10317726;28;20017;-64
2021/01/06 22:21:23;;;;;;;0.88;0.88;;;;;;;;;;10304692;28;20032;-64
2021/01/06 22:26:21;;;;;;;3.97;0.60;;;;;;;;;;10324337;28;20029;-64
2021/01/06 22:31:18;;;;;;;6.20;1.00;;;;;;;;;;10310388;28;20518;-63
2021/01/06 22:36:16;;;;;;;1.10;1.00;;;;;;;;;;10308598;28;20033;-64
2021/01/06 22:41:13;;;;;;;1.00;1.00;;;;;;;;;;10318478;28;20057;-64
2021/01/06 22:46:11;;;;;;;1.57;1.20;;;;;;;;;;10308781;28;20021;-62
2021/01/06 22:51:08;;;;;;;0.73;0.73;;;;;;;;;;10321700;28;20414;-63
2021/01/06 22:56:05;;;;;;;0.60;0.60;;;;;;;;;;10322299;28;20090;-63
2021/01/06 23:01:03;;;;;;;0.67;0.67;;;;;;;;;;10308262;28;20533;-62
2021/01/06 23:06:00;;;;;;;1.57;1.43;;;;;;;;;;10311448;28;20473;-63
2021/01/06 23:10:57;;;;;;;0.80;0.80;;;;;;;;;;10323500;28;20584;-63
2021/01/06 23:15:55;;;;;;;0.67;0.67;;;;;;;;;;10330246;28;20036;-62
2021/01/06 23:20:52;;;;;;;0.80;0.80;;;;;;;;;;10308039;28;20041;-62
2021/01/06 23:25:50;;;;;;;0.80;0.80;;;;;;;;;;10316587;28;20047;-60
2021/01/06 23:30:47;;;;;;;1.97;1.63;;;;;;;;;;10327564;28;20507;-62
2021/01/06 23:35:45;;;;;;;3.20;1.90;;;;;;;;;;10326939;28;20033;-59
2021/01/06 23:40:42;;;;;;;0.40;0.40;;;;;;;;;;10323771;28;21156;-63
2021/01/06 23:45:40;;;;;;;0.97;0.97;;;;;;;;;;10308024;28;20040;-61
2021/01/06 23:50:37;;;;;;;0.93;0.93;;;;;;;;;;10337454;28;20048;-60
2021/01/06 23:55:35;;;;;;;0.60;0.60;;;;;;;;;;10336524;28;20116;-61
